Time;durP1;ratioP1;P1;durP2;ratioP2;P2;SDS_P1;SDS_P2;PMS_P1;PMS_P2;Temp;Humidity;BMP_temperature;BMP_pressure;BME280_temperature;BME280_humidity;BME280_pressure;Samples;Min_cycle;Max_cycle;Signal;HPM_P1;HPM_P2
2023/02/11 00:01:07;;;;;;;27.00;7.40;;;;;;;15.77;88.04;103261.63;5097569;28;20032;-49
2023/02/11 00:03:33;;;;;;;24.00;6.93;;;;;;;15.99;84.80;103251.16;5098375;28;20061;-50
2023/02/11 00:06:04;;;;;;;24.13;6.67;;;;;;;15.90;85.03;103242.22;5104965;28;20100;-50
2023/02/11 00:08:30;;;;;;;25.38;6.50;;;;;;;15.62;88.12;103239.91;5098489;28;20048;-53
2023/02/11 00:10:57;;;;;;;20.20;6.43;;;;;;;15.03;87.69;103239.06;5101603;28;20055;-53
2023/02/11 00:13:24;;;;;;;20.10;7.25;;;;;;;16.22;82.87;103253.94;5096354;28;20084;-53
2023/02/11 00:15:49;;;;;;;25.60;6.00;;;;;;;14.84;92.98;103239.34;5097963;28;20070;-49
2023/02/11 00:18:15;;;;;;;21.33;7.65;;;;;;;14.90;92.19;103244.06;5101927;28;20059;-51
2023/02/11 00:20:41;;;;;;;;;;;;;;;14.87;91.00;103266.78;5103755;28;20114;-52
2023/02/11 00:23:07;;;;;;;28.00;6.93;;;;;;;15.55;89.52;103263.16;5103160;28;19919;-49
2023/02/11 00:25:36;;;;;;;21.50;7.13;;;;;;;14.76;92.60;103256.34;5097413;28;20036;-49
2023/02/11 00:28:01;;;;;;;27.92;7.10;;;;;;;16.06;85.96;103249.44;5097074;28;20035;-48
2023/02/11 00:30:27;;;;;;;33.53;7.63;;;;;;;16.30;84.19;103253.06;5095561;28;20040;-49
2023/02/11 00:32:52;;;;;;;18.33;6.33;;;;;;;16.81;82.13;103255.34;5098195;28;20051;-48
2023/02/11 00:35:18;;;;;;;32.13;7.40;;;;;;;15.58;87.45;103249.34;5084860;28;20048;-52
2023/02/11 00:37:43;;;;;;;18.27;6.10;;;;;;;15.08;89.32;103257.41;5097660;28;20285;-53
2023/02/11 00:40:10;;;;;;;21.05;6.35;;;;;;;15.95;86.64;103249.81;5102477;28;20067;-47
2023/02/11 00:42:36;;;;;;;29.98;7.00;;;;;;;16.02;84.07;103248.94;5099411;28;20036;-52
2023/02/11 00:45:02;;;;;;;34.50;6.57;;;;;;;14.98;89.91;103241.38;5094293;28;20562;-52
2023/02/11 00:47:28;;;;;;;;;;;;;;;15.85;85.77;103237.31;5101541;28;20048;-51
2023/02/11 00:49:54;;;;;;;17.60;5.45;;;;;;;15.85;86.78;103234.63;5097016;28;19942;-52
2023/02/11 00:52:19;;;;;;;22.87;6.63;;;;;;;15.84;83.79;103246.41;5099464;28;21373;-49
2023/02/11 00:54:45;;;;;;;23.43;7.47;;;;;;;16.80;80.92;103242.88;5080123;28;20040;-53
2023/02/11 00:57:10;;;;;;;27.20;6.20;;;;;;;15.81;88.19;103246.78;5104845;28;20035;-49
2023/02/11 00:59:36;;;;;;;23.83;6.75;;;;;;;15.55;87.50;103247.81;5081580;28;20065;-49
2023/02/11 01:02:01;;;;;;;25.85;7.50;;;;;;;15.30;89.66;103241.59;5113950;28;20043;-51
2023/02/11 01:04:27;;;;;;;27.43;6.80;;;;;;;15.03;88.01;103252.53;5097943;28;20040;-50
2023/02/11 01:06:52;;;;;;;20.43;7.33;;;;;;;15.16;89.42;103261.97;5082266;28;20088;-54
2023/02/11 01:09:20;;;;;;;31.20;6.77;;;;;;;14.92;90.05;103260.91;5082441;28;20285;-55
2023/02/11 01:11:46;;;;;;;28.77;6.55;;;;;;;16.05;84.41;103263.94;5097297;28;20032;-52
2023/02/11 01:14:13;;;;;;;18.48;6.03;;;;;;;15.36;86.50;103256.25;5082061;28;20104;-51
2023/02/11 01:16:39;;;;;;;21.58;7.55;;;;;;;14.77;90.28;103241.88;5078275;28;20067;-51
2023/02/11 01:19:05;;;;;;;23.95;7.30;;;;;;;15.85;85.76;103240.00;5097838;28;20971;-47
2023/02/11 01:21:30;;;;;;;35.30;8.57;;;;;;;14.48;90.97;103227.78;5101175;28;20032;-52
2023/02/11 01:23:56;;;;;;;19.77;6.30;;;;;;;15.42;88.72;103213.28;5083017;28;20042;-51
2023/02/11 01:26:21;;;;;;;20.20;6.00;;;;;;;15.43;88.46;103214.09;5100296;28;20032;-51
2023/02/11 01:28:47;;;;;;;30.33;7.13;;;;;;;14.93;91.13;103202.50;5095277;28;20062;-50
2023/02/11 01:31:13;;;;;;;22.85;6.35;;;;;;;15.71;89.30;103182.22;5082196;28;20060;-50
2023/02/11 01:33:39;;;;;;;14.77;6.40;;;;;;;15.54;88.54;103186.81;5101338;28;20051;-53
2023/02/11 01:36:05;;;;;;;21.27;6.38;;;;;;;14.66;91.58;103197.19;5099492;28;20021;-52
2023/02/11 01:38:32;;;;;;;25.50;5.80;;;;;;;14.99;90.65;103201.81;5097807;28;20036;-50
2023/02/11 01:41:00;;;;;;;17.52;6.35;;;;;;;16.37;84.75;103201.91;5080924;28;20043;-52
2023/02/11 01:43:32;;;;;;;18.70;7.28;;;;;;;16.51;80.98;103205.72;5101796;28;20031;-52
2023/02/11 01:46:28;;;;;;;28.08;7.28;;;;;;;15.90;86.52;103213.38;5073759;28;20066;-53
2023/02/11 01:49:03;;;;;;;27.30;6.85;;;;;;;16.27;83.98;103216.47;5109894;28;20047;-50
2023/02/11 01:51:35;;;;;;;18.48;5.72;;;;;;;15.62;90.14;103223.72;5097298;28;20083;-53
2023/02/11 01:59:45;;;;;;;19.85;6.53;;;;;;;15.25;88.83;103236.72;5111982;28;20055;-50
2023/02/11 02:02:16;;;;;;;28.75;6.35;;;;;;;14.40;96.74;103230.44;5111942;28;20024;-53
2023/02/11 02:04:51;;;;;;;26.05;6.55;;;;;;;16.04;86.73;103233.44;5100654;28;20041;-51
2023/02/11 02:07:27;;;;;;;28.92;7.53;;;;;;;15.31;87.62;103235.19;5077035;28;20025;-54
2023/02/11 02:09:59;;;;;;;25.13;6.72;;;;;;;15.88;88.54;103234.31;5113185;28;20028;-53
2023/02/11 02:12:24;;;;;;;16.75;6.57;;;;;;;15.67;90.00;103215.09;5076523;28;20028;-54
2023/02/11 02:14:49;;;;;;;35.77;7.47;;;;;;;14.35;96.52;103211.25;5086814;28;20039;-55
2023/02/11 02:17:29;;;;;;;22.60;5.87;;;;;;;14.18;99.61;103210.31;5110082;28;20035;-53
2023/02/11 02:20:13;;;;;;;21.10;5.85;;;;;;;15.05;96.49;103204.69;5099802;28;20036;-55
2023/02/11 02:22:56;;;;;;;24.35;6.82;;;;;;;14.72;95.54;103199.25;5100593;28;20070;-50
2023/02/11 02:25:55;;;;;;;22.75;8.00;;;;;;;14.40;96.15;103218.81;5097305;28;20055;-50
2023/02/11 02:28:47;;;;;;;19.98;6.68;;;;;;;13.92;99.45;103221.97;5096912;28;20037;-50
2023/02/11 02:31:43;;;;;;;21.98;7.25;;;;;;;15.45;93.06;103231.81;5098976;28;20033;-52
2023/02/11 02:34:14;;;;;;;19.80;6.72;;;;;;;15.97;89.51;103231.59;5081255;28;20411;-53
2023/02/11 02:36:57;;;;;;;32.65;7.82;;;;;;;16.10;89.21;103226.47;5094571;28;20032;-54
2023/02/11 02:39:26;;;;;;;34.50;9.48;;;;;;;16.29;85.77;103232.47;5097159;28;20037;-51
2023/02/11 02:41:53;;;;;;;21.95;7.05;;;;;;;15.35;89.15;103225.78;5099684;28;20032;-52
2023/02/11 02:44:19;;;;;;;22.73;7.55;;;;;;;15.66;90.45;103219.66;5100595;28;20039;-52
2023/02/11 02:46:44;;;;;;;24.38;8.23;;;;;;;14.85;93.11;103222.19;5080304;28;20057;-52
2023/02/11 02:49:15;;;;;;;22.97;8.93;;;;;;;15.68;91.66;103214.06;5094974;28;20080;-50
2023/02/11 02:52:02;;;;;;;25.65;8.30;;;;;;;15.23;92.39;103210.94;5104905;28;20016;-50
2023/02/11 02:54:38;;;;;;;20.17;7.63;;;;;;;14.49;95.78;103210.59;5093877;28;20044;-51
2023/02/11 02:57:37;;;;;;;27.05;7.90;;;;;;;13.45;100.00;103205.19;5097949;28;20094;-53
2023/02/11 03:00:30;;;;;;;17.50;7.03;;;;;;;15.64;95.22;103205.50;5102777;28;20048;-51
2023/02/11 03:03:22;;;;;;;22.70;8.07;;;;;;;15.77;91.45;103203.09;5094439;28;20055;-50
2023/02/11 03:05:48;;;;;;;28.90;8.43;;;;;;;13.61;100.00;103199.09;5104209;28;20032;-53
2023/02/11 03:08:23;;;;;;;35.55;8.30;;;;;;;15.82;91.41;103202.59;5098828;28;20100;-52
2023/02/11 03:10:52;;;;;;;23.77;9.02;;;;;;;14.77;93.79;103194.22;5084788;28;20043;-51
2023/02/11 03:13:24;;;;;;;24.88;8.20;;;;;;;14.89;97.86;103201.97;5101645;28;20053;-50
2023/02/11 03:15:53;;;;;;;20.85;7.72;;;;;;;15.98;89.08;103203.59;5097329;28;20058;-50
2023/02/11 03:18:23;;;;;;;24.27;8.65;;;;;;;15.20;95.60;103199.47;5095929;28;20025;-52
2023/02/11 03:20:52;;;;;;;30.38;9.25;;;;;;;15.24;95.53;103200.00;5098668;28;20054;-50
2023/02/11 03:23:21;;;;;;;23.80;8.77;;;;;;;14.69;98.98;103193.34;5101193;28;20032;-51
2023/02/11 03:25:57;;;;;;;29.58;8.85;;;;;;;14.23;100.00;103196.38;5098712;28;20040;-48
2023/02/11 03:28:35;;;;;;;24.08;8.55;;;;;;;13.90;100.00;103202.44;5094683;28;20032;-48
2023/02/11 03:31:12;;;;;;;25.55;9.00;;;;;;;14.26;100.00;103190.69;5097744;28;20032;-52
2023/02/11 03:34:14;;;;;;;37.90;11.45;;;;;;;14.62;100.00;103190.47;5097932;28;20048;-48
2023/02/11 03:36:46;;;;;;;20.25;9.10;;;;;;;14.74;100.00;103189.16;5080577;28;20033;-53
2023/02/11 03:39:24;;;;;;;21.15;9.63;;;;;;;14.28;100.00;103188.66;5096059;28;20037;-48
2023/02/11 03:41:53;;;;;;;30.15;10.27;;;;;;;15.02;100.00;103180.78;5104174;28;20028;-52
2023/02/11 03:44:21;;;;;;;32.42;10.43;;;;;;;14.94;98.91;103171.84;5094986;28;20036;-52
2023/02/11 03:46:51;;;;;;;26.08;9.95;;;;;;;15.03;100.00;103171.69;5101288;28;20036;-50
2023/02/11 03:49:20;;;;;;;24.45;11.05;;;;;;;14.87;98.52;103168.97;5102694;28;20056;-52
2023/02/11 03:51:50;;;;;;;33.35;10.40;;;;;;;14.66;100.00;103158.66;5100644;28;20049;-52
2023/02/11 03:54:19;;;;;;;28.10;10.68;;;;;;;14.96;98.40;103165.28;5097479;28;20032;-52
2023/02/11 03:56:51;;;;;;;32.38;11.55;;;;;;;14.60;98.87;103157.47;5104169;28;20047;-51
2023/02/11 03:59:16;;;;;;;30.63;11.05;;;;;;;14.73;100.00;103154.31;5077932;28;20044;-51
2023/02/11 04:01:42;;;;;;;28.87;10.43;;;;;;;13.64;100.00;103156.78;5104994;28;20040;-54
2023/02/11 04:04:08;;;;;;;29.00;10.30;;;;;;;14.68;100.00;103167.41;5097554;28;20028;-50
2023/02/11 04:06:34;;;;;;;37.60;12.73;;;;;;;13.82;100.00;103170.16;5102928;28;20039;-50
2023/02/11 04:09:00;;;;;;;31.60;13.10;;;;;;;14.37;100.00;103168.00;5098766;28;20024;-50
2023/02/11 04:11:26;;;;;;;34.35;12.90;;;;;;;15.22;96.75;103166.94;5099968;28;20028;-52
2023/02/11 04:13:51;;;;;;;41.63;14.43;;;;;;;15.79;92.00;103165.16;5102731;28;20032;-53
2023/02/11 04:16:17;;;;;;;26.77;11.97;;;;;;;14.82;96.75;103152.47;5098431;28;20058;-51
2023/02/11 04:18:42;;;;;;;28.67;12.67;;;;;;;15.18;96.78;103152.97;5097845;28;20332;-50
2023/02/11 04:21:08;;;;;;;37.73;14.60;;;;;;;15.28;96.01;103165.44;5103230;28;20054;-48
2023/02/11 04:23:33;;;;;;;45.87;14.77;;;;;;;14.88;100.00;103165.28;5101598;28;20040;-50
2023/02/11 04:25:59;;;;;;;33.77;11.73;;;;;;;13.93;100.00;103167.16;5098366;28;20055;-50
2023/02/11 04:28:25;;;;;;;36.45;13.45;;;;;;;13.85;100.00;103170.69;5103071;28;20035;-52
2023/02/11 04:30:50;;;;;;;38.42;12.80;;;;;;;15.25;97.45;103176.56;5099320;28;20037;-48
2023/02/11 04:33:16;;;;;;;36.20;12.77;;;;;;;14.00;100.00;103186.19;5096190;28;20059;-54
2023/02/11 04:35:41;;;;;;;40.57;11.47;;;;;;;13.89;100.00;103177.41;5099219;28;20057;-51
2023/02/11 04:38:07;;;;;;;46.13;15.33;;;;;;;13.71;100.00;103177.47;5098434;28;20274;-55
2023/02/11 04:40:32;;;;;;;42.03;13.87;;;;;;;13.73;100.00;103188.06;5094645;28;20096;-52
2023/02/11 04:42:58;;;;;;;42.95;13.98;;;;;;;15.00;100.00;103185.50;5100265;28;20043;-51
2023/02/11 04:45:23;;;;;;;39.83;13.50;;;;;;;13.27;100.00;103178.31;5097486;28;20024;-48
2023/02/11 04:47:49;;;;;;;34.73;13.87;;;;;;;14.10;100.00;103169.94;5100951;28;20340;-51
2023/02/11 04:50:14;;;;;;;45.57;15.03;;;;;;;15.51;100.00;103181.75;5086808;28;20043;-52
2023/02/11 04:52:40;;;;;;;42.25;15.40;;;;;;;15.88;95.91;103176.78;5104458;28;20064;-52
2023/02/11 04:55:06;;;;;;;40.77;14.40;;;;;;;16.42;90.86;103186.88;5100753;28;20059;-53
2023/02/11 04:57:31;;;;;;;57.97;17.67;;;;;;;14.23;100.00;103177.56;5100430;28;20037;-47
2023/02/11 04:59:56;;;;;;;40.60;13.90;;;;;;;15.11;100.00;103181.63;5101133;28;20105;-49
2023/02/11 05:02:22;;;;;;;30.47;13.30;;;;;;;15.11;100.00;103183.47;5097986;28;20048;-48
2023/02/11 05:04:48;;;;;;;44.50;16.17;;;;;;;13.78;100.00;103180.38;5098986;28;20032;-50
2023/02/11 05:07:13;;;;;;;31.57;14.13;;;;;;;15.11;100.00;103178.09;5098455;28;20039;-51
2023/02/11 05:09:39;;;;;;;43.17;14.00;;;;;;;15.20;97.80;103177.06;5103477;28;20280;-51
2023/02/11 05:12:04;;;;;;;41.87;15.67;;;;;;;15.43;97.32;103173.66;5102072;28;20047;-50
2023/02/11 05:14:30;;;;;;;51.10;15.97;;;;;;;15.31;97.88;103190.22;5102292;28;20280;-48
2023/02/11 05:16:55;;;;;;;38.77;15.53;;;;;;;15.19;98.60;103187.00;5099798;28;20029;-53
2023/02/11 05:19:21;;;;;;;37.83;15.43;;;;;;;15.27;97.47;103194.25;5103340;28;20035;-54
2023/02/11 05:21:46;;;;;;;46.20;14.83;;;;;;;15.73;95.06;103187.44;5097157;28;20071;-54
2023/02/11 05:24:11;;;;;;;33.67;13.37;;;;;;;16.23;91.43;103187.31;5100494;28;20032;-53
2023/02/11 05:26:37;;;;;;;45.20;14.83;;;;;;;15.43;95.53;103181.75;5097224;28;20108;-54
2023/02/11 05:29:03;;;;;;;32.78;10.95;;;;;;;15.99;92.32;103175.59;5094626;28;20035;-51
2023/02/11 05:31:28;;;;;;;45.03;14.70;;;;;;;16.22;91.42;103185.63;5097397;28;20040;-52
2023/02/11 05:33:54;;;;;;;41.80;15.07;;;;;;;16.11;91.50;103186.84;5098304;28;20353;-54
2023/02/11 05:36:19;;;;;;;41.77;14.23;;;;;;;16.15;91.52;103197.13;5097500;28;20035;-53
2023/02/11 05:38:45;;;;;;;34.05;14.98;;;;;;;16.04;91.51;103189.41;5099916;28;20033;-50
2023/02/11 05:41:10;;;;;;;31.83;14.53;;;;;;;15.87;90.74;103189.41;5101535;28;20037;-52
2023/02/11 05:43:36;;;;;;;35.97;11.50;;;;;;;15.32;94.11;103188.34;5097709;28;20054;-52
2023/02/11 05:46:03;;;;;;;38.92;14.93;;;;;;;16.19;90.96;103186.81;5099436;28;20047;-51
2023/02/11 05:48:29;;;;;;;43.33;16.00;;;;;;;15.40;94.42;103180.25;5075842;28;20046;-51
2023/02/11 05:50:54;;;;;;;38.90;13.93;;;;;;;15.90;90.00;103174.78;5095211;28;20055;-50
2023/02/11 05:53:20;;;;;;;52.63;17.10;;;;;;;15.10;95.93;103171.84;5095017;28;20040;-53
2023/02/11 05:55:45;;;;;;;43.03;15.53;;;;;;;16.10;91.55;103183.28;5092754;28;20096;-50
2023/02/11 05:58:11;;;;;;;43.73;17.23;;;;;;;15.88;92.13;103180.34;5095354;28;20269;-52
2023/02/11 06:00:37;;;;;;;48.65;17.42;;;;;;;16.14;91.01;103179.22;5093494;28;20044;-52
2023/02/11 06:03:03;;;;;;;37.15;15.55;;;;;;;16.77;88.41;103184.59;5099209;28;20039;-53
2023/02/11 06:05:30;;;;;;;44.30;15.52;;;;;;;16.08;90.08;103193.44;5098751;28;20033;-51
2023/02/11 06:07:55;;;;;;;37.17;15.40;;;;;;;16.38;89.42;103196.34;5096566;28;20020;-54
2023/02/11 06:10:21;;;;;;;44.27;16.63;;;;;;;16.09;90.25;103197.81;5100685;28;20035;-53
2023/02/11 06:12:47;;;;;;;49.38;17.55;;;;;;;16.42;89.93;103191.41;5102013;28;20054;-55
2023/02/11 06:15:12;;;;;;;40.83;17.73;;;;;;;16.53;88.52;103195.56;5097797;28;20051;-55
2023/02/11 06:17:38;;;;;;;50.60;16.50;;;;;;;15.49;97.15;103192.72;5102530;28;20036;-49
2023/02/11 06:20:07;;;;;;;47.70;16.27;;;;;;;16.10;92.36;103198.66;5097925;28;20040;-51
2023/02/11 06:22:33;;;;;;;51.30;16.77;;;;;;;16.76;87.88;103196.44;5097039;28;20050;-55
2023/02/11 06:24:58;;;;;;;40.95;16.33;;;;;;;16.34;90.16;103200.38;5098235;28;20036;-54
2023/02/11 06:27:24;;;;;;;47.77;18.97;;;;;;;16.09;91.59;103200.50;5097794;28;20078;-51
2023/02/11 06:29:51;;;;;;;46.65;20.00;;;;;;;15.99;93.27;103198.00;5098977;28;20055;-52
2023/02/11 06:32:17;;;;;;;48.00;19.83;;;;;;;16.58;90.42;103203.97;5098715;28;20058;-54
2023/02/11 06:34:43;;;;;;;60.13;19.92;;;;;;;16.72;89.31;103199.66;5098283;28;20083;-53
2023/02/11 06:37:08;;;;;;;46.67;17.77;;;;;;;16.59;89.14;103205.66;5099139;28;20060;-48
2023/02/11 06:39:36;;;;;;;48.13;18.38;;;;;;;15.74;93.17;103195.34;5096329;28;20107;-52
2023/02/11 06:42:01;;;;;;;43.63;14.35;;;;;;;15.72;96.18;103197.38;5103654;28;20318;-52
2023/02/11 06:44:26;;;;;;;57.27;20.13;;;;;;;16.27;93.01;103188.63;5100302;28;20186;-54
2023/02/11 06:46:52;;;;;;;52.38;20.92;;;;;;;15.95;93.57;103188.59;5096742;28;20407;-51
2023/02/11 06:49:18;;;;;;;53.27;19.93;;;;;;;16.01;96.16;103192.44;5100608;28;20115;-48
2023/02/11 06:51:43;;;;;;;50.23;18.90;;;;;;;16.02;96.56;103194.13;5103178;28;20032;-53
2023/02/11 06:54:10;;;;;;;55.53;20.00;;;;;;;15.77;95.81;103199.56;5103157;28;20265;-52
2023/02/11 06:56:39;;;;;;;53.17;18.15;;;;;;;15.29;99.67;103207.56;5088252;28;20047;-52
2023/02/11 06:59:04;;;;;;;59.80;21.52;;;;;;;16.42;94.22;103213.88;5107319;28;20044;-51
2023/02/11 07:01:30;;;;;;;53.15;20.08;;;;;;;16.59;91.18;103208.34;5100584;28;20052;-51
2023/02/11 07:03:57;;;;;;;53.28;20.73;;;;;;;15.98;94.27;103200.91;5097472;28;20044;-55
2023/02/11 07:06:26;;;;;;;64.00;22.33;;;;;;;16.02;96.62;103207.63;5102366;28;20044;-49
2023/02/11 07:08:53;;;;;;;51.47;19.88;;;;;;;16.56;93.34;103211.41;5099320;28;20040;-52
2023/02/11 07:11:25;;;;;;;54.13;20.73;;;;;;;15.97;96.11;103213.53;5101400;28;20032;-50
2023/02/11 07:13:52;;;;;;;54.22;21.48;;;;;;;15.68;98.94;103206.84;5105085;28;20065;-52
2023/02/11 07:16:18;;;;;;;62.47;21.48;;;;;;;15.29;100.00;103215.63;5099368;28;20036;-51
2023/02/11 07:18:45;;;;;;;51.65;21.42;;;;;;;15.72;99.84;103218.13;5099443;28;20036;-51
2023/02/11 07:21:13;;;;;;;61.17;21.55;;;;;;;16.23;96.09;103219.69;5101511;28;20029;-52
2023/02/11 07:23:40;;;;;;;50.10;19.58;;;;;;;15.84;97.24;103221.31;5099963;28;20028;-53
2023/02/11 07:26:07;;;;;;;55.47;21.83;;;;;;;15.82;98.76;103224.16;5103128;28;20040;-54
2023/02/11 07:28:34;;;;;;;52.22;20.50;;;;;;;16.27;97.44;103226.41;5102366;28;20063;-51
2023/02/11 07:31:29;;;;;;;45.45;19.95;;;;;;;15.40;100.00;103231.50;5105958;28;20062;-51
2023/02/11 07:33:58;;;;;;;49.63;19.58;;;;;;;15.85;99.59;103240.00;5089982;28;20107;-52
2023/02/11 07:36:25;;;;;;;46.17;19.27;;;;;;;15.06;100.00;103240.56;5103223;28;20028;-52
2023/02/11 07:38:50;;;;;;;58.53;20.67;;;;;;;15.31;100.00;103249.50;5100742;28;20032;-49
2023/02/11 07:41:20;;;;;;;54.50;19.70;;;;;;;15.51;100.00;103246.47;5099152;28;20032;-50
2023/02/11 07:43:46;;;;;;;57.08;23.10;;;;;;;15.80;98.80;103242.38;5103325;28;20043;-49
2023/02/11 07:46:19;;;;;;;49.15;21.92;;;;;;;15.51;100.00;103249.19;5103865;28;20044;-48
2023/02/11 07:48:44;;;;;;;53.17;22.40;;;;;;;15.58;100.00;103243.97;5097338;28;20075;-52
2023/02/11 07:51:18;;;;;;;60.07;22.80;;;;;;;14.65;100.00;103244.00;5102090;28;20036;-53
2023/02/11 07:53:44;;;;;;;57.28;23.38;;;;;;;15.33;100.00;103247.50;5101478;28;20051;-51
2023/02/11 07:56:11;;;;;;;60.55;24.05;;;;;;;14.45;100.00;103251.50;5099620;28;20043;-53
2023/02/11 07:58:36;;;;;;;63.92;23.75;;;;;;;14.44;100.00;103253.34;5104441;28;20053;-54
2023/02/11 08:01:08;;;;;;;70.68;24.10;;;;;;;14.89;100.00;103245.94;5104246;28;20035;-54
2023/02/11 08:03:35;;;;;;;58.35;23.80;;;;;;;14.88;100.00;103246.09;5103170;28;20033;-54
2023/02/11 08:06:10;;;;;;;64.90;25.30;;;;;;;14.72;100.00;103250.44;5101358;28;20056;-49
2023/02/11 08:08:36;;;;;;;71.68;26.88;;;;;;;14.62;100.00;103250.53;5099018;28;20051;-52
2023/02/11 08:11:09;;;;;;;66.87;24.03;;;;;;;15.19;100.00;103267.00;5103588;28;20036;-52
2023/02/11 08:13:35;;;;;;;64.72;24.33;;;;;;;15.54;100.00;103256.94;5100866;28;20054;-52
2023/02/11 08:16:02;;;;;;;74.35;24.88;;;;;;;15.73;100.00;103261.13;5097091;28;20036;-54
2023/02/11 08:18:29;;;;;;;70.20;24.85;;;;;;;15.51;100.00;103259.09;5100088;28;20032;-53
2023/02/11 08:20:54;;;;;;;76.85;27.77;;;;;;;15.54;100.00;103259.63;5101921;28;20039;-54
2023/02/11 08:23:19;;;;;;;68.03;24.80;;;;;;;16.63;100.00;103259.16;5102254;28;20052;-55
2023/02/11 08:25:45;;;;;;;72.97;26.00;;;;;;;15.53;100.00;103263.34;5098427;28;20036;-50
2023/02/11 08:28:10;;;;;;;60.83;22.50;;;;;;;15.41;100.00;103256.59;5096467;28;20033;-54
2023/02/11 08:30:36;;;;;;;53.57;20.27;;;;;;;16.88;100.00;103267.13;5101144;28;20047;-53
2023/02/11 08:33:02;;;;;;;77.15;25.85;;;;;;;16.17;100.00;103262.59;5100273;28;20269;-48
2023/02/11 08:35:27;;;;;;;72.10;25.47;;;;;;;15.66;100.00;103262.81;5099371;28;20164;-49
2023/02/11 08:37:53;;;;;;;66.75;25.23;;;;;;;15.37;100.00;103264.19;5101017;28;20036;-52
2023/02/11 08:40:19;;;;;;;67.63;24.87;;;;;;;14.95;100.00;103265.97;5099571;28;20032;-51
2023/02/11 08:42:44;;;;;;;71.55;27.98;;;;;;;15.59;100.00;103267.22;5083363;28;20028;-51
2023/02/11 08:45:11;;;;;;;83.17;27.83;;;;;;;15.78;100.00;103257.91;5096658;28;20459;-53
2023/02/11 08:47:38;;;;;;;75.38;24.17;;;;;;;15.26;100.00;103257.28;5096082;28;20047;-51
2023/02/11 08:50:04;;;;;;;66.32;26.38;;;;;;;15.68;100.00;103266.19;5077019;28;20032;-52
2023/02/11 08:52:29;;;;;;;68.20;25.80;;;;;;;15.66;100.00;103273.59;5100787;28;20133;-51
2023/02/11 08:54:55;;;;;;;70.57;25.90;;;;;;;15.36;100.00;103275.13;5097692;28;20032;-51
2023/02/11 08:57:20;;;;;;;81.90;26.87;;;;;;;16.01;100.00;103276.13;5096215;28;20110;-52
2023/02/11 08:59:46;;;;;;;66.87;26.73;;;;;;;16.08;100.00;103279.78;5097876;28;20092;-52
2023/02/11 09:02:12;;;;;;;62.40;25.63;;;;;;;15.68;100.00;103281.50;5096092;28;20062;-52
2023/02/11 09:04:37;;;;;;;64.18;25.27;;;;;;;15.02;100.00;103285.03;5098390;28;20040;-52
2023/02/11 09:07:03;;;;;;;67.77;26.60;;;;;;;15.60;100.00;103290.47;5097200;28;20074;-52
2023/02/11 09:09:29;;;;;;;69.80;25.70;;;;;;;16.00;100.00;103287.91;5101563;28;20033;-48
2023/02/11 09:11:56;;;;;;;57.00;24.00;;;;;;;15.68;100.00;103295.00;5097745;28;20066;-49
2023/02/11 09:14:23;;;;;;;56.28;25.75;;;;;;;16.06;100.00;103289.94;5099103;28;20257;-49
2023/02/11 09:16:50;;;;;;;72.22;27.38;;;;;;;15.80;100.00;103296.34;5097156;28;20048;-49
2023/02/11 09:19:17;;;;;;;64.80;26.90;;;;;;;16.16;100.00;103296.00;5097371;28;20028;-53
2023/02/11 09:21:43;;;;;;;69.57;25.83;;;;;;;16.37;100.00;103301.81;5099206;28;20067;-50
2023/02/11 09:24:09;;;;;;;69.90;27.20;;;;;;;16.45;100.00;103301.78;5101671;28;20029;-52
2023/02/11 09:26:36;;;;;;;66.22;26.08;;;;;;;16.15;100.00;103294.31;5094759;28;20084;-51
2023/02/11 09:29:03;;;;;;;64.93;24.63;;;;;;;15.74;100.00;103308.66;5096739;28;20059;-52
2023/02/11 09:31:30;;;;;;;;;;;;;;;16.12;100.00;103316.22;5094431;28;20057;-51
2023/02/11 09:34:01;;;;;;;55.35;23.90;;;;;;;16.41;100.00;103303.16;5099006;28;19916;-51
2023/02/11 09:36:29;;;;;;;60.17;24.60;;;;;;;16.32;100.00;103311.28;5101234;28;20036;-52
2023/02/11 09:38:57;;;;;;;59.85;27.27;;;;;;;16.23;100.00;103311.50;5096754;28;20100;-52
2023/02/11 09:41:23;;;;;;;56.33;25.20;;;;;;;16.37;100.00;103310.75;5095007;28;20044;-50
2023/02/11 09:43:55;;;;;;;55.17;21.70;;;;;;;16.02;100.00;103316.41;5094845;28;20050;-53
2023/02/11 09:46:23;;;;;;;51.35;22.98;;;;;;;16.62;100.00;103307.97;5096075;28;20024;-51
2023/02/11 09:48:52;;;;;;;47.35;22.27;;;;;;;17.66;99.91;103319.50;5096496;28;20029;-53
2023/02/11 09:51:32;;;;;;;57.10;23.25;;;;;;;17.08;100.00;103319.94;5101871;28;20083;-52
2023/02/11 09:54:08;;;;;;;55.85;21.15;;;;;;;16.44;100.00;103327.09;5094625;28;20054;-50
2023/02/11 09:56:33;;;;;;;57.97;24.77;;;;;;;17.02;100.00;103330.41;5096350;28;20036;-50
2023/02/11 09:58:59;;;;;;;55.10;21.43;;;;;;;16.93;100.00;103323.34;5095951;28;20308;-53
2023/02/11 10:01:54;;;;;;;51.73;21.87;;;;;;;16.35;100.00;103310.09;5100753;28;20043;-52
2023/02/11 10:04:43;;;;;;;52.40;20.70;;;;;;;16.59;100.00;103322.66;5090359;28;20277;-53
2023/02/11 10:07:34;;;;;;;53.37;21.73;;;;;;;16.43;100.00;103320.03;5098670;28;20261;-55
2023/02/11 10:10:16;;;;;;;60.60;20.77;;;;;;;16.70;100.00;103332.25;5095383;28;20295;-52
2023/02/11 10:12:50;;;;;;;48.70;20.47;;;;;;;16.37;100.00;103336.94;5098554;28;20272;-56
2023/02/11 10:15:40;;;;;;;48.58;21.20;;;;;;;16.70;100.00;103340.34;5097746;28;20289;-55
2023/02/11 10:18:24;;;;;;;46.43;20.93;;;;;;;17.36;100.00;103335.63;5094847;28;20040;-49
2023/02/11 10:21:16;;;;;;;42.80;19.80;;;;;;;16.85;100.00;103345.84;5093127;28;20269;-52
2023/02/11 10:23:46;;;;;;;45.80;19.70;;;;;;;17.11;100.00;103357.44;5094202;28;20298;-51
2023/02/11 10:26:15;;;;;;;53.20;19.30;;;;;;;16.51;100.00;103362.38;5098574;28;20340;-55
2023/02/11 10:28:44;;;;;;;50.78;19.27;;;;;;;16.98;100.00;103368.78;5096333;28;20409;-53
2023/02/11 10:31:16;;;;;;;47.38;18.40;;;;;;;17.03;100.00;103374.53;5104110;28;20103;-52
2023/02/11 10:34:03;;;;;;;46.13;18.83;;;;;;;17.42;99.99;103373.63;5096866;28;20051;-54
2023/02/11 10:36:34;;;;;;;55.38;19.48;;;;;;;17.70;97.84;103380.34;5098475;28;20029;-55
2023/02/11 10:39:08;;;;;;;40.90;18.40;;;;;;;17.40;96.84;103372.09;5098673;28;20039;-54
2023/02/11 10:41:39;;;;;;;46.03;20.03;;;;;;;16.95;100.00;103372.66;5096666;28;20325;-51
2023/02/11 10:44:05;;;;;;;46.57;19.43;;;;;;;17.28;100.00;103380.63;5097926;28;20295;-49
2023/02/11 10:46:35;;;;;;;49.63;20.17;;;;;;;17.28;100.00;103385.19;5097352;28;20391;-51
2023/02/11 10:49:02;;;;;;;53.07;20.57;;;;;;;17.56;98.51;103377.41;5101779;28;20037;-54
2023/02/11 10:51:33;;;;;;;50.10;20.87;;;;;;;17.71;98.18;103379.31;5099112;28;20300;-50
2023/02/11 10:53:58;;;;;;;50.40;20.43;;;;;;;18.26;94.84;103382.75;5094838;28;20333;-51
2023/02/11 10:56:26;;;;;;;38.27;18.27;;;;;;;17.75;96.92;103383.34;5101664;28;20289;-52
2023/02/11 10:59:06;;;;;;;41.80;20.77;;;;;;;18.57;92.71;103389.03;5097092;28;20032;-50
2023/02/11 11:01:43;;;;;;;50.10;20.77;;;;;;;17.42;98.86;103391.72;5101270;28;20269;-55
2023/02/11 11:04:39;;;;;;;45.03;18.15;;;;;;;17.59;97.78;103387.00;5096307;28;20277;-49
2023/02/11 11:07:23;;;;;;;51.57;18.50;;;;;;;17.48;97.84;103390.97;5085478;28;20048;-52
2023/02/11 11:10:30;;;;;;;50.97;19.10;;;;;;;17.44;98.24;103390.53;5098647;28;20281;-50
2023/02/11 11:12:55;;;;;;;41.80;18.53;;;;;;;16.88;100.00;103385.22;5101201;28;20272;-48
2023/02/11 11:15:26;;;;;;;48.50;18.53;;;;;;;16.96;100.00;103393.28;5101218;28;20269;-50
2023/02/11 11:18:15;;;;;;;54.13;20.37;;;;;;;17.16;100.00;103401.00;5095828;28;20040;-49
2023/02/11 11:20:58;;;;;;;38.70;17.37;;;;;;;17.44;98.79;103412.16;5095439;28;20276;-50
2023/02/11 11:23:25;;;;;;;55.43;19.37;;;;;;;18.36;97.04;103406.03;5094466;28;20269;-51
2023/02/11 11:26:18;;;;;;;41.70;18.03;;;;;;;18.58;93.92;103410.53;5096852;28;20324;-52